createdAt,value
2018-08-20T17:52:37.160Z,22.61
2018-08-20T17:55:06.014Z,22.61
2018-08-20T17:57:34.561Z,22.61
2018-08-20T18:00:16.545Z,22.61
2018-08-20T18:02:44.918Z,22.60
2018-08-20T18:05:13.719Z,22.57
2018-08-20T18:07:42.116Z,22.56
2018-08-20T18:10:10.567Z,22.57
2018-08-20T18:12:39.827Z,22.56
2018-08-20T18:15:08.345Z,22.54
2018-08-20T18:17:36.669Z,22.53
2018-08-20T18:20:05.393Z,22.50
2018-08-20T18:22:34.152Z,22.49
2018-08-20T18:25:02.540Z,22.45
2018-08-20T18:27:36.076Z,22.44
2018-08-20T18:30:04.795Z,22.41
2018-08-20T18:32:33.119Z,22.42
2018-08-20T18:35:01.435Z,22.39
2018-08-20T18:37:31.157Z,22.37
2018-08-20T18:40:00.195Z,22.35
2018-08-20T18:42:49.194Z,22.32
2018-08-20T18:45:17.651Z,22.28
2018-08-20T18:47:46.116Z,22.23
2018-08-20T18:50:14.555Z,22.20
2018-08-20T18:52:42.921Z,22.18
2018-08-20T18:55:11.361Z,22.14
2018-08-20T18:57:39.760Z,22.13
2018-08-20T19:00:12.191Z,22.11
2018-08-20T19:02:53.881Z,22.09
2018-08-20T19:05:22.533Z,22.04
2018-08-20T19:07:51.077Z,22.02
2018-08-20T19:10:26.232Z,22.00
2018-08-20T19:12:54.601Z,21.98
2018-08-20T19:15:56.164Z,21.96
2018-08-20T19:18:29.241Z,21.92
2018-08-20T19:20:57.656Z,21.89
2018-08-20T19:23:26.037Z,21.87
2018-08-20T19:25:54.513Z,21.86
2018-08-20T19:28:23.893Z,21.85
2018-08-20T19:30:53.655Z,21.83
2018-08-20T19:33:27.543Z,21.82
2018-08-20T19:35:56.660Z,21.82
2018-08-20T19:38:25.092Z,21.81
2018-08-20T19:41:03.856Z,21.80
2018-08-20T19:43:37.678Z,21.78
2018-08-20T19:46:06.047Z,21.74
2018-08-20T19:48:34.500Z,21.71
2018-08-20T19:51:05.547Z,21.68
2018-08-20T19:53:33.925Z,21.66
2018-08-20T19:56:02.283Z,21.63
2018-08-20T19:58:34.788Z,21.58
2018-08-20T20:01:10.068Z,21.55
2018-08-20T20:03:43.430Z,21.50
2018-08-20T20:06:11.889Z,21.48
2018-08-20T20:08:40.362Z,21.45
2018-08-20T20:11:16.190Z,21.43
2018-08-20T20:13:44.577Z,21.45
2018-08-20T20:16:12.931Z,21.44
2018-08-20T20:18:41.304Z,21.45
2018-08-20T20:21:09.688Z,21.42
2018-08-20T20:23:38.146Z,21.40
2018-08-20T20:26:06.749Z,21.38
2018-08-20T20:28:35.136Z,21.35
2018-08-20T20:31:03.516Z,21.35
2018-08-20T20:33:32.080Z,21.33
2018-08-20T20:36:00.423Z,21.34
2018-08-20T20:38:28.848Z,21.35
2018-08-20T20:40:57.075Z,21.34
2018-08-20T20:43:33.342Z,21.33
2018-08-20T20:46:01.823Z,21.32
2018-08-20T20:48:30.212Z,21.29
2018-08-20T20:50:58.579Z,21.28
2018-08-20T20:53:26.971Z,21.26
2018-08-20T20:55:55.438Z,21.24
2018-08-20T20:58:30.888Z,21.20
2018-08-20T21:01:00.436Z,21.18
2018-08-20T21:03:46.169Z,21.17
2018-08-20T21:06:14.542Z,21.14
2018-08-20T21:08:47.324Z,21.13
2018-08-20T21:11:16.632Z,21.11
2018-08-20T21:13:45.440Z,21.08
2018-08-20T21:16:17.492Z,21.05
2018-08-20T21:18:51.087Z,21.04
2018-08-20T21:21:19.969Z,21.02
2018-08-20T21:23:48.413Z,20.99
2018-08-20T21:26:16.966Z,20.98
2018-08-20T21:28:51.713Z,20.98
2018-08-20T21:31:21.287Z,20.96
2018-08-20T21:33:57.824Z,20.92
2018-08-20T21:36:26.136Z,20.86
2018-08-20T21:38:54.530Z,20.81
2018-08-20T21:41:25.757Z,20.75
2018-08-20T21:43:54.538Z,20.68
2018-08-20T21:46:23.140Z,20.60
2018-08-20T21:48:51.457Z,20.54
2018-08-20T21:51:25.145Z,20.47
2018-08-20T21:53:53.574Z,20.40
2018-08-20T21:56:21.934Z,20.34
2018-08-20T21:58:50.389Z,20.28
2018-08-20T22:01:18.975Z,20.23
2018-08-20T22:03:47.318Z,20.20
2018-08-20T22:06:15.686Z,20.15
2018-08-20T22:08:44.070Z,20.09
2018-08-20T22:11:12.721Z,20.02
2018-08-20T22:13:41.231Z,19.98
2018-08-20T22:16:17.609Z,19.93
2018-08-20T22:18:47.401Z,19.86
2018-08-20T22:21:17.005Z,19.78
2018-08-20T22:23:46.114Z,19.74
2018-08-20T22:26:17.912Z,19.68
2018-08-20T22:28:48.804Z,19.65
2018-08-20T22:31:17.455Z,19.62
2018-08-20T22:33:58.509Z,19.58
2018-08-20T22:36:27.724Z,19.57
2018-08-20T22:39:00.231Z,19.53
2018-08-20T22:41:29.821Z,19.47
2018-08-20T22:43:58.328Z,19.41
2018-08-20T22:46:27.090Z,19.39
2018-08-20T22:48:59.227Z,19.34
2018-08-20T22:51:28.778Z,19.30
2018-08-20T22:53:59.955Z,19.27
2018-08-20T22:56:34.840Z,19.23
2018-08-20T22:59:10.085Z,19.18
2018-08-20T23:01:38.495Z,19.14
2018-08-20T23:04:07.177Z,19.11
2018-08-20T23:06:35.607Z,19.08
2018-08-20T23:09:28.487Z,19.06
2018-08-20T23:11:56.943Z,19.02
2018-08-20T23:14:25.581Z,18.99
2018-08-20T23:16:53.944Z,18.99
2018-08-20T23:19:22.288Z,18.98
2018-08-20T23:21:53.534Z,18.97
2018-08-20T23:24:21.950Z,18.96
2018-08-20T23:26:50.845Z,18.94
2018-08-20T23:29:19.198Z,18.91
2018-08-20T23:31:47.550Z,18.88
2018-08-20T23:34:16.267Z,18.86
2018-08-20T23:36:44.667Z,18.81
2018-08-20T23:39:15.293Z,18.76
2018-08-20T23:41:43.813Z,18.72
2018-08-20T23:44:15.788Z,18.70
2018-08-20T23:46:46.992Z,18.66
2018-08-20T23:49:15.366Z,18.64
2018-08-20T23:51:43.839Z,18.62
2018-08-20T23:54:12.738Z,18.61
2018-08-20T23:56:41.157Z,18.60
2018-08-20T23:59:09.721Z,18.56
